sensor_id;sensor_type;location;lat;lon;timestamp;temperature;humidity
48876;DHT22;34689;51.644;5.618;2022-08-01T00:01:06;20.80;99.90
48876;DHT22;34689;51.644;5.618;2022-08-01T00:03:32;20.80;99.90
48876;DHT22;34689;51.644;5.618;2022-08-01T00:05:57;20.80;99.90
48876;DHT22;34689;51.644;5.618;2022-08-01T00:08:23;20.80;99.90
48876;DHT22;34689;51.644;5.618;2022-08-01T00:10:49;20.80;99.90
48876;DHT22;34689;51.644;5.618;2022-08-01T00:13:14;20.80;99.90
48876;DHT22;34689;51.644;5.618;2022-08-01T00:15:40;20.80;99.90
48876;DHT22;34689;51.644;5.618;2022-08-01T00:18:06;20.80;99.90
48876;DHT22;34689;51.644;5.618;2022-08-01T00:20:32;20.80;99.90
48876;DHT22;34689;51.644;5.618;2022-08-01T00:22:57;20.70;99.90
48876;DHT22;34689;51.644;5.618;2022-08-01T00:25:23;20.70;99.90
48876;DHT22;34689;51.644;5.618;2022-08-01T00:27:49;20.60;99.90
48876;DHT22;34689;51.644;5.618;2022-08-01T00:30:15;20.70;99.90
48876;DHT22;34689;51.644;5.618;2022-08-01T00:32:44;20.70;99.90
48876;DHT22;34689;51.644;5.618;2022-08-01T00:35:10;20.70;99.90
48876;DHT22;34689;51.644;5.618;2022-08-01T00:37:36;20.70;99.90
48876;DHT22;34689;51.644;5.618;2022-08-01T00:40:01;20.70;99.90
48876;DHT22;34689;51.644;5.618;2022-08-01T00:42:27;20.70;99.90
48876;DHT22;34689;51.644;5.618;2022-08-01T00:44:53;20.70;99.90
48876;DHT22;34689;51.644;5.618;2022-08-01T00:47:19;20.70;99.90
48876;DHT22;34689;51.644;5.618;2022-08-01T00:49:44;20.80;99.90
48876;DHT22;34689;51.644;5.618;2022-08-01T00:52:10;20.70;99.90
48876;DHT22;34689;51.644;5.618;2022-08-01T00:54:36;20.70;99.90
48876;DHT22;34689;51.644;5.618;2022-08-01T00:57:03;20.70;99.90
48876;DHT22;34689;51.644;5.618;2022-08-01T00:59:29;20.70;99.90
48876;DHT22;34689;51.644;5.618;2022-08-01T01:01:55;20.70;99.90
48876;DHT22;34689;51.644;5.618;2022-08-01T01:04:21;20.70;99.90
48876;DHT22;34689;51.644;5.618;2022-08-01T01:14:44;20.70;99.90
48876;DHT22;34689;51.644;5.618;2022-08-01T01:17:16;20.70;99.90
48876;DHT22;34689;51.644;5.618;2022-08-01T01:19:47;20.70;99.90
48876;DHT22;34689;51.644;5.618;2022-08-01T01:30:15;20.60;99.90
48876;DHT22;34689;51.644;5.618;2022-08-01T01:32:46;20.70;99.90
48876;DHT22;34689;51.644;5.618;2022-08-01T01:35:28;20.60;99.90
48876;DHT22;34689;51.644;5.618;2022-08-01T01:38:04;20.70;99.90
48876;DHT22;34689;51.644;5.618;2022-08-01T01:40:30;20.70;99.90
48876;DHT22;34689;51.644;5.618;2022-08-01T01:42:56;20.60;99.90
48876;DHT22;34689;51.644;5.618;2022-08-01T01:45:27;20.60;99.90
48876;DHT22;34689;51.644;5.618;2022-08-01T01:47:54;20.60;99.90
48876;DHT22;34689;51.644;5.618;2022-08-01T01:50:22;20.60;99.90
48876;DHT22;34689;51.644;5.618;2022-08-01T01:52:49;20.60;99.90
48876;DHT22;34689;51.644;5.618;2022-08-01T01:55:15;20.60;99.90
48876;DHT22;34689;51.644;5.618;2022-08-01T01:57:43;20.60;99.90
48876;DHT22;34689;51.644;5.618;2022-08-01T02:00:11;20.60;99.90
48876;DHT22;34689;51.644;5.618;2022-08-01T02:02:39;20.60;99.90
48876;DHT22;34689;51.644;5.618;2022-08-01T02:05:06;20.60;99.90
48876;DHT22;34689;51.644;5.618;2022-08-01T02:07:34;20.60;99.90
48876;DHT22;34689;51.644;5.618;2022-08-01T02:10:02;20.60;99.90
48876;DHT22;34689;51.644;5.618;2022-08-01T02:12:30;20.60;99.90
48876;DHT22;34689;51.644;5.618;2022-08-01T02:14:58;20.60;99.90
48876;DHT22;34689;51.644;5.618;2022-08-01T02:17:25;20.50;99.90
48876;DHT22;34689;51.644;5.618;2022-08-01T02:19:53;20.50;99.90
48876;DHT22;34689;51.644;5.618;2022-08-01T02:22:32;20.50;99.90
48876;DHT22;34689;51.644;5.618;2022-08-01T02:25:00;20.50;99.90
48876;DHT22;34689;51.644;5.618;2022-08-01T02:27:36;20.50;99.90
48876;DHT22;34689;51.644;5.618;2022-08-01T02:30:05;20.50;99.90
48876;DHT22;34689;51.644;5.618;2022-08-01T02:35:00;20.50;99.90
48876;DHT22;34689;51.644;5.618;2022-08-01T02:37:30;20.50;99.90
48876;DHT22;34689;51.644;5.618;2022-08-01T02:40:00;20.40;99.90
48876;DHT22;34689;51.644;5.618;2022-08-01T02:42:27;20.40;99.90
48876;DHT22;34689;51.644;5.618;2022-08-01T02:44:53;20.40;99.90
48876;DHT22;34689;51.644;5.618;2022-08-01T02:47:20;20.40;99.90
48876;DHT22;34689;51.644;5.618;2022-08-01T02:49:48;20.40;99.90
48876;DHT22;34689;51.644;5.618;2022-08-01T02:52:16;20.40;99.90
48876;DHT22;34689;51.644;5.618;2022-08-01T02:54:45;20.40;99.90
48876;DHT22;34689;51.644;5.618;2022-08-01T02:57:12;20.40;99.90
48876;DHT22;34689;51.644;5.618;2022-08-01T02:59:39;20.40;99.90
48876;DHT22;34689;51.644;5.618;2022-08-01T03:02:07;20.40;99.90
48876;DHT22;34689;51.644;5.618;2022-08-01T03:04:35;20.40;99.90
48876;DHT22;34689;51.644;5.618;2022-08-01T03:07:03;20.40;99.90
48876;DHT22;34689;51.644;5.618;2022-08-01T03:09:32;20.30;99.90
48876;DHT22;34689;51.644;5.618;2022-08-01T03:12:00;20.30;99.90
48876;DHT22;34689;51.644;5.618;2022-08-01T03:14:28;20.30;99.90
48876;DHT22;34689;51.644;5.618;2022-08-01T03:16:56;20.30;99.90
48876;DHT22;34689;51.644;5.618;2022-08-01T03:19:24;20.30;99.90
48876;DHT22;34689;51.644;5.618;2022-08-01T03:21:52;20.30;99.90
48876;DHT22;34689;51.644;5.618;2022-08-01T03:24:19;20.30;99.90
48876;DHT22;34689;51.644;5.618;2022-08-01T03:26:47;20.20;99.90
48876;DHT22;34689;51.644;5.618;2022-08-01T03:29:20;20.20;99.90
48876;DHT22;34689;51.644;5.618;2022-08-01T03:31:48;20.20;99.90
48876;DHT22;34689;51.644;5.618;2022-08-01T03:34:15;20.20;99.90
48876;DHT22;34689;51.644;5.618;2022-08-01T03:36:48;20.20;99.90
48876;DHT22;34689;51.644;5.618;2022-08-01T03:39:16;20.10;99.90
48876;DHT22;34689;51.644;5.618;2022-08-01T03:41:52;20.10;99.90
48876;DHT22;34689;51.644;5.618;2022-08-01T03:44:24;20.00;99.90
48876;DHT22;34689;51.644;5.618;2022-08-01T03:47:00;20.00;99.90
48876;DHT22;34689;51.644;5.618;2022-08-01T03:49:30;20.00;99.90
48876;DHT22;34689;51.644;5.618;2022-08-01T03:51:57;20.00;99.90
48876;DHT22;34689;51.644;5.618;2022-08-01T03:54:25;20.00;99.90
48876;DHT22;34689;51.644;5.618;2022-08-01T03:56:53;20.00;99.90
48876;DHT22;34689;51.644;5.618;2022-08-01T03:59:20;20.00;99.90
48876;DHT22;34689;51.644;5.618;2022-08-01T04:01:49;19.90;99.90
48876;DHT22;34689;51.644;5.618;2022-08-01T04:04:15;19.90;99.90
48876;DHT22;34689;51.644;5.618;2022-08-01T04:06:41;19.90;99.90
48876;DHT22;34689;51.644;5.618;2022-08-01T04:09:09;19.90;99.90
48876;DHT22;34689;51.644;5.618;2022-08-01T04:11:37;19.90;99.90
48876;DHT22;34689;51.644;5.618;2022-08-01T04:14:03;20.00;99.90
48876;DHT22;34689;51.644;5.618;2022-08-01T04:16:29;20.00;99.90
48876;DHT22;34689;51.644;5.618;2022-08-01T04:18:55;20.00;99.90
48876;DHT22;34689;51.644;5.618;2022-08-01T04:21:24;20.00;99.90
48876;DHT22;34689;51.644;5.618;2022-08-01T04:23:53;19.90;99.90
48876;DHT22;34689;51.644;5.618;2022-08-01T04:26:20;19.90;99.90
48876;DHT22;34689;51.644;5.618;2022-08-01T04:28:47;19.90;99.90
48876;DHT22;34689;51.644;5.618;2022-08-01T04:31:16;19.90;99.90
48876;DHT22;34689;51.644;5.618;2022-08-01T04:33:46;19.90;99.90
48876;DHT22;34689;51.644;5.618;2022-08-01T04:36:14;20.00;99.90
48876;DHT22;34689;51.644;5.618;2022-08-01T04:38:42;20.00;99.90
48876;DHT22;34689;51.644;5.618;2022-08-01T04:41:12;20.00;99.90
48876;DHT22;34689;51.644;5.618;2022-08-01T04:43:38;19.90;99.90
48876;DHT22;34689;51.644;5.618;2022-08-01T04:46:06;19.90;99.90
48876;DHT22;34689;51.644;5.618;2022-08-01T04:48:33;19.90;99.90
48876;DHT22;34689;51.644;5.618;2022-08-01T04:51:01;19.80;99.90
48876;DHT22;34689;51.644;5.618;2022-08-01T04:53:27;19.80;99.90
48876;DHT22;34689;51.644;5.618;2022-08-01T04:55:53;19.80;99.90
48876;DHT22;34689;51.644;5.618;2022-08-01T04:58:19;19.80;99.90
48876;DHT22;34689;51.644;5.618;2022-08-01T05:00:45;19.90;99.90
48876;DHT22;34689;51.644;5.618;2022-08-01T05:03:11;19.90;99.90
48876;DHT22;34689;51.644;5.618;2022-08-01T05:05:37;19.90;99.90
48876;DHT22;34689;51.644;5.618;2022-08-01T05:08:03;19.90;99.90
48876;DHT22;34689;51.644;5.618;2022-08-01T05:10:29;19.90;99.90
48876;DHT22;34689;51.644;5.618;2022-08-01T05:12:56;19.90;99.90
48876;DHT22;34689;51.644;5.618;2022-08-01T05:15:22;19.80;99.90
48876;DHT22;34689;51.644;5.618;2022-08-01T05:17:47;19.80;99.90
48876;DHT22;34689;51.644;5.618;2022-08-01T05:20:13;19.80;99.90
48876;DHT22;34689;51.644;5.618;2022-08-01T05:22:39;19.80;99.90
48876;DHT22;34689;51.644;5.618;2022-08-01T05:25:05;19.80;99.90
48876;DHT22;34689;51.644;5.618;2022-08-01T05:27:32;19.80;99.90
48876;DHT22;34689;51.644;5.618;2022-08-01T05:29:58;19.80;99.90
48876;DHT22;34689;51.644;5.618;2022-08-01T05:32:23;19.80;99.90
48876;DHT22;34689;51.644;5.618;2022-08-01T05:34:49;19.90;99.90
48876;DHT22;34689;51.644;5.618;2022-08-01T05:37:15;19.90;99.90
48876;DHT22;34689;51.644;5.618;2022-08-01T05:39:40;20.00;99.90
48876;DHT22;34689;51.644;5.618;2022-08-01T05:42:06;19.90;99.90
48876;DHT22;34689;51.644;5.618;2022-08-01T05:44:32;20.00;99.90
48876;DHT22;34689;51.644;5.618;2022-08-01T05:46:58;20.00;99.90
48876;DHT22;34689;51.644;5.618;2022-08-01T05:49:24;19.90;99.90
48876;DHT22;34689;51.644;5.618;2022-08-01T05:51:49;19.80;99.90
48876;DHT22;34689;51.644;5.618;2022-08-01T05:54:15;19.90;99.90
48876;DHT22;34689;51.644;5.618;2022-08-01T05:56:41;19.90;99.90
48876;DHT22;34689;51.644;5.618;2022-08-01T05:59:07;19.90;99.90
48876;DHT22;34689;51.644;5.618;2022-08-01T06:01:33;19.90;99.90
48876;DHT22;34689;51.644;5.618;2022-08-01T06:03:58;20.00;99.90
48876;DHT22;34689;51.644;5.618;2022-08-01T06:06:25;20.00;99.90
48876;DHT22;34689;51.644;5.618;2022-08-01T06:08:50;20.00;99.90
48876;DHT22;34689;51.644;5.618;2022-08-01T06:11:17;20.10;99.90
48876;DHT22;34689;51.644;5.618;2022-08-01T06:13:43;20.20;99.90
48876;DHT22;34689;51.644;5.618;2022-08-01T06:16:08;20.20;99.90
48876;DHT22;34689;51.644;5.618;2022-08-01T06:18:34;20.20;99.90
48876;DHT22;34689;51.644;5.618;2022-08-01T06:21:00;20.20;99.90
48876;DHT22;34689;51.644;5.618;2022-08-01T06:23:26;20.20;99.90
48876;DHT22;34689;51.644;5.618;2022-08-01T06:25:55;20.20;99.90
48876;DHT22;34689;51.644;5.618;2022-08-01T06:28:21;20.30;99.90
48876;DHT22;34689;51.644;5.618;2022-08-01T06:30:47;20.30;99.90
48876;DHT22;34689;51.644;5.618;2022-08-01T06:33:13;20.40;99.90
48876;DHT22;34689;51.644;5.618;2022-08-01T06:35:39;20.40;99.90
48876;DHT22;34689;51.644;5.618;2022-08-01T06:38:04;20.40;99.90
48876;DHT22;34689;51.644;5.618;2022-08-01T06:40:30;20.40;99.90
48876;DHT22;34689;51.644;5.618;2022-08-01T06:42:56;20.40;99.90
48876;DHT22;34689;51.644;5.618;2022-08-01T06:45:22;20.40;99.90
48876;DHT22;34689;51.644;5.618;2022-08-01T06:47:48;20.40;99.90
48876;DHT22;34689;51.644;5.618;2022-08-01T06:50:14;20.40;99.90
48876;DHT22;34689;51.644;5.618;2022-08-01T06:52:41;20.50;99.90
48876;DHT22;34689;51.644;5.618;2022-08-01T06:55:07;20.50;99.90
48876;DHT22;34689;51.644;5.618;2022-08-01T06:57:33;20.60;99.90
48876;DHT22;34689;51.644;5.618;2022-08-01T07:00:03;20.60;99.90
48876;DHT22;34689;51.644;5.618;2022-08-01T07:02:29;20.70;99.90
48876;DHT22;34689;51.644;5.618;2022-08-01T07:04:54;20.70;99.90
48876;DHT22;34689;51.644;5.618;2022-08-01T07:07:21;20.70;99.90
48876;DHT22;34689;51.644;5.618;2022-08-01T07:09:47;20.80;99.90
48876;DHT22;34689;51.644;5.618;2022-08-01T07:12:13;20.80;99.90
48876;DHT22;34689;51.644;5.618;2022-08-01T07:14:38;20.80;99.90
48876;DHT22;34689;51.644;5.618;2022-08-01T07:17:04;20.80;99.90
48876;DHT22;34689;51.644;5.618;2022-08-01T07:19:30;20.80;99.90
48876;DHT22;34689;51.644;5.618;2022-08-01T07:21:56;20.80;99.90
48876;DHT22;34689;51.644;5.618;2022-08-01T07:24:21;20.80;99.90
48876;DHT22;34689;51.644;5.618;2022-08-01T07:26:48;20.80;99.90
48876;DHT22;34689;51.644;5.618;2022-08-01T07:29:14;20.70;99.90
48876;DHT22;34689;51.644;5.618;2022-08-01T07:31:40;20.70;99.90
48876;DHT22;34689;51.644;5.618;2022-08-01T07:34:06;20.70;99.90
48876;DHT22;34689;51.644;5.618;2022-08-01T07:36:32;20.60;99.90
48876;DHT22;34689;51.644;5.618;2022-08-01T07:38:58;20.60;99.90
48876;DHT22;34689;51.644;5.618;2022-08-01T07:41:24;20.60;99.90
48876;DHT22;34689;51.644;5.618;2022-08-01T07:43:50;20.60;99.90
48876;DHT22;34689;51.644;5.618;2022-08-01T07:46:16;20.70;99.90
48876;DHT22;34689;51.644;5.618;2022-08-01T07:48:42;20.70;99.90
48876;DHT22;34689;51.644;5.618;2022-08-01T07:51:08;20.70;99.90
48876;DHT22;34689;51.644;5.618;2022-08-01T07:53:35;20.80;99.90
48876;DHT22;34689;51.644;5.618;2022-08-01T07:56:01;20.80;99.90
48876;DHT22;34689;51.644;5.618;2022-08-01T07:58:28;20.90;99.90
48876;DHT22;34689;51.644;5.618;2022-08-01T08:00:54;21.00;99.90
48876;DHT22;34689;51.644;5.618;2022-08-01T08:03:20;21.00;99.90
48876;DHT22;34689;51.644;5.618;2022-08-01T08:05:46;21.10;99.90
48876;DHT22;34689;51.644;5.618;2022-08-01T08:08:11;21.10;99.90
48876;DHT22;34689;51.644;5.618;2022-08-01T08:10:39;21.10;99.90
48876;DHT22;34689;51.644;5.618;2022-08-01T08:13:05;21.20;99.90
48876;DHT22;34689;51.644;5.618;2022-08-01T08:15:31;21.20;99.90
48876;DHT22;34689;51.644;5.618;2022-08-01T08:17:57;21.20;99.90
48876;DHT22;34689;51.644;5.618;2022-08-01T08:20:22;21.20;99.90
48876;DHT22;34689;51.644;5.618;2022-08-01T08:22:54;21.20;99.90
48876;DHT22;34689;51.644;5.618;2022-08-01T08:25:20;21.20;99.90
48876;DHT22;34689;51.644;5.618;2022-08-01T08:27:47;21.30;99.90
48876;DHT22;34689;51.644;5.618;2022-08-01T08:30:13;21.30;99.90
48876;DHT22;34689;51.644;5.618;2022-08-01T08:32:40;21.40;99.90
48876;DHT22;34689;51.644;5.618;2022-08-01T08:35:06;21.40;99.90
48876;DHT22;34689;51.644;5.618;2022-08-01T08:37:36;21.40;99.90
48876;DHT22;34689;51.644;5.618;2022-08-01T08:40:03;21.50;99.90
48876;DHT22;34689;51.644;5.618;2022-08-01T08:42:29;21.60;99.90
48876;DHT22;34689;51.644;5.618;2022-08-01T08:44:55;21.60;99.90
48876;DHT22;34689;51.644;5.618;2022-08-01T08:47:22;21.60;99.90
48876;DHT22;34689;51.644;5.618;2022-08-01T08:49:51;21.70;99.90
48876;DHT22;34689;51.644;5.618;2022-08-01T08:52:21;21.70;99.90
48876;DHT22;34689;51.644;5.618;2022-08-01T08:54:49;21.80;99.90
48876;DHT22;34689;51.644;5.618;2022-08-01T08:57:15;21.80;99.90
48876;DHT22;34689;51.644;5.618;2022-08-01T08:59:44;21.80;99.90
48876;DHT22;34689;51.644;5.618;2022-08-01T09:02:10;21.90;99.90
48876;DHT22;34689;51.644;5.618;2022-08-01T09:04:37;21.90;99.90
48876;DHT22;34689;51.644;5.618;2022-08-01T09:07:05;21.90;99.90
48876;DHT22;34689;51.644;5.618;2022-08-01T09:09:32;21.90;99.90
48876;DHT22;34689;51.644;5.618;2022-08-01T09:11:58;21.90;99.90
48876;DHT22;34689;51.644;5.618;2022-08-01T09:14:25;21.80;99.90
48876;DHT22;34689;51.644;5.618;2022-08-01T09:17:07;21.80;99.90
48876;DHT22;34689;51.644;5.618;2022-08-01T09:19:44;21.80;99.90
48876;DHT22;34689;51.644;5.618;2022-08-01T09:22:15;21.70;99.90
48876;DHT22;34689;51.644;5.618;2022-08-01T09:24:57;21.70;99.90
48876;DHT22;34689;51.644;5.618;2022-08-01T09:27:23;21.80;99.90
48876;DHT22;34689;51.644;5.618;2022-08-01T09:29:52;22.00;99.90
48876;DHT22;34689;51.644;5.618;2022-08-01T09:32:18;22.00;99.80
48876;DHT22;34689;51.644;5.618;2022-08-01T09:34:44;22.10;99.70
48876;DHT22;34689;51.644;5.618;2022-08-01T09:37:12;22.30;99.70
48876;DHT22;34689;51.644;5.618;2022-08-01T09:39:39;22.40;99.40
48876;DHT22;34689;51.644;5.618;2022-08-01T09:42:24;22.50;99.20
48876;DHT22;34689;51.644;5.618;2022-08-01T09:44:51;22.50;99.10
48876;DHT22;34689;51.644;5.618;2022-08-01T09:47:19;22.60;99.10
48876;DHT22;34689;51.644;5.618;2022-08-01T09:49:56;22.50;98.90
48876;DHT22;34689;51.644;5.618;2022-08-01T09:52:24;22.50;98.90
48876;DHT22;34689;51.644;5.618;2022-08-01T09:54:58;22.60;99.20
48876;DHT22;34689;51.644;5.618;2022-08-01T09:57:27;22.70;98.80
48876;DHT22;34689;51.644;5.618;2022-08-01T09:59:58;22.80;98.60
48876;DHT22;34689;51.644;5.618;2022-08-01T10:02:33;22.90;98.40
48876;DHT22;34689;51.644;5.618;2022-08-01T10:05:01;22.80;98.40
48876;DHT22;34689;51.644;5.618;2022-08-01T10:07:27;22.80;98.50
48876;DHT22;34689;51.644;5.618;2022-08-01T10:09:53;22.80;98.50
48876;DHT22;34689;51.644;5.618;2022-08-01T10:12:23;22.70;98.50
48876;DHT22;34689;51.644;5.618;2022-08-01T10:14:50;22.70;98.50
48876;DHT22;34689;51.644;5.618;2022-08-01T10:17:19;22.70;98.60
48876;DHT22;34689;51.644;5.618;2022-08-01T10:19:45;22.60;98.60
48876;DHT22;34689;51.644;5.618;2022-08-01T10:22:13;22.60;98.60
48876;DHT22;34689;51.644;5.618;2022-08-01T10:24:45;22.60;98.70
48876;DHT22;34689;51.644;5.618;2022-08-01T10:27:14;22.50;99.00
48876;DHT22;34689;51.644;5.618;2022-08-01T10:29:41;22.60;98.70
48876;DHT22;34689;51.644;5.618;2022-08-01T10:32:09;22.70;98.70
48876;DHT22;34689;51.644;5.618;2022-08-01T10:34:36;23.10;98.10
48876;DHT22;34689;51.644;5.618;2022-08-01T10:37:04;23.00;98.10
48876;DHT22;34689;51.644;5.618;2022-08-01T10:39:31;22.80;98.20
48876;DHT22;34689;51.644;5.618;2022-08-01T10:41:58;22.70;98.30
48876;DHT22;34689;51.644;5.618;2022-08-01T10:44:25;22.60;98.40
48876;DHT22;34689;51.644;5.618;2022-08-01T10:46:56;22.50;98.40
48876;DHT22;34689;51.644;5.618;2022-08-01T10:49:26;22.50;98.50
48876;DHT22;34689;51.644;5.618;2022-08-01T10:51:54;22.40;98.50
48876;DHT22;34689;51.644;5.618;2022-08-01T10:54:24;22.40;98.40
48876;DHT22;34689;51.644;5.618;2022-08-01T10:56:51;22.60;98.30
48876;DHT22;34689;51.644;5.618;2022-08-01T10:59:27;22.90;98.10
48876;DHT22;34689;51.644;5.618;2022-08-01T11:02:04;23.00;97.70
48876;DHT22;34689;51.644;5.618;2022-08-01T11:07:21;23.50;97.10
48876;DHT22;34689;51.644;5.618;2022-08-01T11:10:02;23.70;96.40
48876;DHT22;34689;51.644;5.618;2022-08-01T11:12:39;23.70;96.40
48876;DHT22;34689;51.644;5.618;2022-08-01T11:17:41;23.90;96.00
48876;DHT22;34689;51.644;5.618;2022-08-01T11:38:44;23.60;96.30
48876;DHT22;34689;51.644;5.618;2022-08-01T11:52:05;23.70;96.10
48876;DHT22;34689;51.644;5.618;2022-08-01T11:54:34;23.80;95.70
48876;DHT22;34689;51.644;5.618;2022-08-01T11:57:04;23.90;95.60
48876;DHT22;34689;51.644;5.618;2022-08-01T11:59:36;24.00;95.40
48876;DHT22;34689;51.644;5.618;2022-08-01T12:02:02;24.00;95.20
48876;DHT22;34689;51.644;5.618;2022-08-01T12:04:48;24.10;94.60
48876;DHT22;34689;51.644;5.618;2022-08-01T12:07:15;24.10;94.80
48876;DHT22;34689;51.644;5.618;2022-08-01T12:09:41;24.20;95.10
48876;DHT22;34689;51.644;5.618;2022-08-01T12:12:07;24.30;94.80
48876;DHT22;34689;51.644;5.618;2022-08-01T12:14:34;24.50;94.60
48876;DHT22;34689;51.644;5.618;2022-08-01T12:16:59;24.40;94.60
48876;DHT22;34689;51.644;5.618;2022-08-01T12:19:25;24.40;94.40
48876;DHT22;34689;51.644;5.618;2022-08-01T12:22:12;24.30;94.30
48876;DHT22;34689;51.644;5.618;2022-08-01T12:24:39;24.20;94.30
48876;DHT22;34689;51.644;5.618;2022-08-01T12:27:07;24.20;94.50
48876;DHT22;34689;51.644;5.618;2022-08-01T12:29:34;24.30;94.30
48876;DHT22;34689;51.644;5.618;2022-08-01T12:32:00;24.30;94.20
48876;DHT22;34689;51.644;5.618;2022-08-01T12:34:28;24.40;94.10
48876;DHT22;34689;51.644;5.618;2022-08-01T12:36:59;24.40;94.00
48876;DHT22;34689;51.644;5.618;2022-08-01T12:39:34;24.40;94.00
48876;DHT22;34689;51.644;5.618;2022-08-01T12:42:01;24.40;93.90
48876;DHT22;34689;51.644;5.618;2022-08-01T12:44:30;24.40;93.90
48876;DHT22;34689;51.644;5.618;2022-08-01T12:46:56;24.30;93.80
48876;DHT22;34689;51.644;5.618;2022-08-01T12:49:23;24.30;94.00
48876;DHT22;34689;51.644;5.618;2022-08-01T12:51:49;24.30;93.90
48876;DHT22;34689;51.644;5.618;2022-08-01T12:54:16;24.20;93.80
48876;DHT22;34689;51.644;5.618;2022-08-01T12:56:42;24.20;93.90
48876;DHT22;34689;51.644;5.618;2022-08-01T12:59:26;24.20;94.00
48876;DHT22;34689;51.644;5.618;2022-08-01T13:01:53;24.20;93.90
48876;DHT22;34689;51.644;5.618;2022-08-01T13:04:21;24.30;93.90
48876;DHT22;34689;51.644;5.618;2022-08-01T13:06:56;24.50;93.60
48876;DHT22;34689;51.644;5.618;2022-08-01T13:09:22;24.60;93.40
48876;DHT22;34689;51.644;5.618;2022-08-01T13:11:48;24.70;93.30
48876;DHT22;34689;51.644;5.618;2022-08-01T13:14:30;24.80;93.00
48876;DHT22;34689;51.644;5.618;2022-08-01T13:16:55;24.80;92.90
48876;DHT22;34689;51.644;5.618;2022-08-01T13:19:42;24.70;92.90
48876;DHT22;34689;51.644;5.618;2022-08-01T13:22:08;24.70;92.80
48876;DHT22;34689;51.644;5.618;2022-08-01T13:24:33;24.80;92.80
48876;DHT22;34689;51.644;5.618;2022-08-01T13:27:01;24.90;92.50
48876;DHT22;34689;51.644;5.618;2022-08-01T13:31:55;24.90;92.40
48876;DHT22;34689;51.644;5.618;2022-08-01T13:34:34;24.90;92.50
48876;DHT22;34689;51.644;5.618;2022-08-01T13:37:01;24.90;92.30
48876;DHT22;34689;51.644;5.618;2022-08-01T13:39:28;24.90;92.20
48876;DHT22;34689;51.644;5.618;2022-08-01T13:42:12;24.90;92.20
48876;DHT22;34689;51.644;5.618;2022-08-01T13:44:38;24.90;92.30
48876;DHT22;34689;51.644;5.618;2022-08-01T13:47:05;25.00;92.20
48876;DHT22;34689;51.644;5.618;2022-08-01T13:49:31;25.10;92.20
48876;DHT22;34689;51.644;5.618;2022-08-01T13:51:58;25.20;91.90
48876;DHT22;34689;51.644;5.618;2022-08-01T13:54:24;25.40;91.60
48876;DHT22;34689;51.644;5.618;2022-08-01T13:56:50;25.50;91.20
48876;DHT22;34689;51.644;5.618;2022-08-01T13:59:16;25.60;90.90
48876;DHT22;34689;51.644;5.618;2022-08-01T14:01:42;25.60;91.00
48876;DHT22;34689;51.644;5.618;2022-08-01T14:04:08;25.60;91.10
48876;DHT22;34689;51.644;5.618;2022-08-01T14:06:34;25.40;91.10
48876;DHT22;34689;51.644;5.618;2022-08-01T14:09:04;25.30;91.10
48876;DHT22;34689;51.644;5.618;2022-08-01T14:11:30;25.30;91.10
48876;DHT22;34689;51.644;5.618;2022-08-01T14:13:56;25.30;91.20
48876;DHT22;34689;51.644;5.618;2022-08-01T14:16:22;25.30;91.10
48876;DHT22;34689;51.644;5.618;2022-08-01T14:18:47;25.30;91.10
48876;DHT22;34689;51.644;5.618;2022-08-01T14:21:13;25.30;91.20
48876;DHT22;34689;51.644;5.618;2022-08-01T14:23:40;25.30;91.00
48876;DHT22;34689;51.644;5.618;2022-08-01T14:26:08;25.20;90.80
48876;DHT22;34689;51.644;5.618;2022-08-01T14:28:34;25.10;91.00
48876;DHT22;34689;51.644;5.618;2022-08-01T14:31:00;25.10;91.00
48876;DHT22;34689;51.644;5.618;2022-08-01T14:33:27;25.20;90.80
48876;DHT22;34689;51.644;5.618;2022-08-01T14:35:52;25.20;90.70
48876;DHT22;34689;51.644;5.618;2022-08-01T14:38:18;25.30;90.50
48876;DHT22;34689;51.644;5.618;2022-08-01T14:40:44;25.40;90.20
48876;DHT22;34689;51.644;5.618;2022-08-01T14:43:12;25.30;90.30
48876;DHT22;34689;51.644;5.618;2022-08-01T14:45:39;25.20;90.40
48876;DHT22;34689;51.644;5.618;2022-08-01T14:48:05;25.20;90.40
48876;DHT22;34689;51.644;5.618;2022-08-01T14:50:31;25.20;90.30
48876;DHT22;34689;51.644;5.618;2022-08-01T14:52:57;25.30;90.30
48876;DHT22;34689;51.644;5.618;2022-08-01T14:55:22;25.30;90.10
48876;DHT22;34689;51.644;5.618;2022-08-01T14:57:50;25.40;90.00
48876;DHT22;34689;51.644;5.618;2022-08-01T15:00:16;25.40;89.50
48876;DHT22;34689;51.644;5.618;2022-08-01T15:02:43;25.50;90.00
48876;DHT22;34689;51.644;5.618;2022-08-01T15:05:09;25.60;89.60
48876;DHT22;34689;51.644;5.618;2022-08-01T15:07:36;25.70;88.80
48876;DHT22;34689;51.644;5.618;2022-08-01T15:10:03;25.60;88.80
48876;DHT22;34689;51.644;5.618;2022-08-01T15:12:29;25.60;89.00
48876;DHT22;34689;51.644;5.618;2022-08-01T15:14:55;25.50;88.80
48876;DHT22;34689;51.644;5.618;2022-08-01T15:17:28;25.40;89.00
48876;DHT22;34689;51.644;5.618;2022-08-01T15:19:57;25.40;89.30
48876;DHT22;34689;51.644;5.618;2022-08-01T15:22:24;25.30;88.90
48876;DHT22;34689;51.644;5.618;2022-08-01T15:24:51;25.20;89.20
48876;DHT22;34689;51.644;5.618;2022-08-01T15:27:17;25.20;89.30
48876;DHT22;34689;51.644;5.618;2022-08-01T15:29:46;25.20;89.00
48876;DHT22;34689;51.644;5.618;2022-08-01T15:32:12;25.20;88.70
48876;DHT22;34689;51.644;5.618;2022-08-01T15:34:38;25.20;88.60
48876;DHT22;34689;51.644;5.618;2022-08-01T15:37:05;25.20;88.40
48876;DHT22;34689;51.644;5.618;2022-08-01T15:39:32;25.20;88.30
48876;DHT22;34689;51.644;5.618;2022-08-01T15:42:02;25.10;88.10
48876;DHT22;34689;51.644;5.618;2022-08-01T15:44:29;25.10;88.00
48876;DHT22;34689;51.644;5.618;2022-08-01T15:46:55;25.10;88.10
48876;DHT22;34689;51.644;5.618;2022-08-01T15:49:21;25.10;88.20
48876;DHT22;34689;51.644;5.618;2022-08-01T15:51:48;25.10;87.90
48876;DHT22;34689;51.644;5.618;2022-08-01T15:54:15;25.10;87.50
48876;DHT22;34689;51.644;5.618;2022-08-01T15:56:41;25.10;87.30
48876;DHT22;34689;51.644;5.618;2022-08-01T15:59:07;25.10;86.90
48876;DHT22;34689;51.644;5.618;2022-08-01T16:01:33;25.20;86.90
48876;DHT22;34689;51.644;5.618;2022-08-01T16:03:59;25.10;86.80
48876;DHT22;34689;51.644;5.618;2022-08-01T16:06:26;25.10;86.00
48876;DHT22;34689;51.644;5.618;2022-08-01T16:08:52;25.10;85.90
48876;DHT22;34689;51.644;5.618;2022-08-01T16:11:18;25.00;85.20
48876;DHT22;34689;51.644;5.618;2022-08-01T16:13:44;24.90;85.50
48876;DHT22;34689;51.644;5.618;2022-08-01T16:16:11;24.80;85.50
48876;DHT22;34689;51.644;5.618;2022-08-01T16:18:38;24.80;85.40
48876;DHT22;34689;51.644;5.618;2022-08-01T16:21:04;24.90;85.20
48876;DHT22;34689;51.644;5.618;2022-08-01T16:23:30;24.80;84.90
48876;DHT22;34689;51.644;5.618;2022-08-01T16:25:56;24.80;84.40
48876;DHT22;34689;51.644;5.618;2022-08-01T16:28:22;24.80;84.00